Oglasa — ITMG — position and weather

sailwx.info

Track history (hours):
 
Tides and Currents Weather Stations Pressure Air Temp Water Temp Dewpoint Dewpoint Depression Visibility Wind Speed Wind Dir Waves Ship Positions

Oglasa

Last reported at 2016-Apr-29 20:19 UTC. Time now 2016-Apr-30 05:15 UTC.
Position N 42°56' E 010°33'.

Length 91 m; draft 3.8 m.

Type: Ship. MMSI: 247046800.

Date/timePositionNaut miles runAvg speedWind from/ knotsBaromVisibWave heightAir tempDewpointWater temp
2016-Apr-29 20:19N 42°56' E 010°33'6 2.1
2016-Apr-29 17:33N 42°53' E 010°26'6 6.4
2016-Apr-29 16:33N 42°49' E 010°19'12 9.0
2016-Apr-29 15:12N 42°56' E 010°33'6 9.9
2016-Apr-29 14:33N 42°53' E 010°25'6 5.8
2016-Apr-29 13:33N 42°49' E 010°19'7 3.4
2016-Apr-29 11:33N 42°53' E 010°26'7 6.4
2016-Apr-29 10:30N 42°49' E 010°20'5 2.2
2016-Apr-29 08:25N 42°52' E 010°23'3 3.1
2016-Apr-29 07:25N 42°50' E 010°21'2 0.1
2016-Apr-28 15:28N 42°49' E 010°19'  
2016-Apr-22 17:20N 42°51' E 010°22'2 0.5
2016-Apr-22 13:27N 42°49' E 010°21'3 0.4
2016-Apr-22 07:12N 42°51' E 010°23'9 0.6
2016-Apr-21 17:31N 42°56' E 010°33'0 0.0
2016-Apr-21 16:09N 42°56' E 010°33'5 2.1
2016-Apr-21 13:33N 42°53' E 010°26'7 6.6
2016-Apr-21 12:32N 42°49' E 010°19'11 5.2
2016-Apr-21 10:22N 42°54' E 010°33'5 2.8
2016-Apr-21 08:33N 42°53' E 010°26'0 0.1
2016-Apr-21 06:33N 42°53' E 010°26'6 6.0
2016-Apr-21 05:29N 42°48' E 010°20'6 2.9
2016-Apr-21 03:31N 42°53' E 010°25'6 1.9
2016-Apr-21 00:25N 42°49' E 010°19'0 0.0
2016-Apr-20 23:33N 42°49' E 010°19'0 0.0
2016-Apr-20 20:32N 42°49' E 010°19'0 0.0
2016-Apr-20 19:33N 42°49' E 010°19'0 0.0
2016-Apr-20 18:32N 42°49' E 010°19'0 0.0
2016-Apr-20 17:18N 42°49' E 010°19'0 0.0
2016-Apr-20 16:31N 42°49' E 010°19'1 1.0
2016-Apr-20 15:33N 42°49' E 010°21'11 7.7
2016-Apr-20 14:05N 42°56' E 010°33'612.2
2016-Apr-20 13:34N 42°53' E 010°25'6 5.4
2016-Apr-20 12:29N 42°49' E 010°20'  
Track history (hours):
 
Tides and Currents Weather Stations Pressure Air Temp Water Temp Dewpoint Dewpoint Depression Visibility Wind Speed Wind Dir Waves Ship Positions

Oglasa

Last reported at 2016-Apr-29 20:19 UTC. Time now 2016-Apr-30 05:15 UTC.
Position N 42°56' E 010°33'.

Length 91 m; draft 3.8 m.

Type: Ship. MMSI: 247046800.

Date/timePositionNaut miles runAvg speedWind from/ knotsBaromVisibWave heightAir tempDewpointWater temp
2016-Apr-29 20:19N 42°56' E 010°33'6 2.1
2016-Apr-29 17:33N 42°53' E 010°26'6 6.4
2016-Apr-29 16:33N 42°49' E 010°19'12 9.0
2016-Apr-29 15:12N 42°56' E 010°33'6 9.9
2016-Apr-29 14:33N 42°53' E 010°25'6 5.8
2016-Apr-29 13:33N 42°49' E 010°19'7 3.4
2016-Apr-29 11:33N 42°53' E 010°26'7 6.4
2016-Apr-29 10:30N 42°49' E 010°20'5 2.2
2016-Apr-29 08:25N 42°52' E 010°23'3 3.1
2016-Apr-29 07:25N 42°50' E 010°21'2 0.1
2016-Apr-28 15:28N 42°49' E 010°19'  
2016-Apr-22 17:20N 42°51' E 010°22'2 0.5
2016-Apr-22 13:27N 42°49' E 010°21'3 0.4
2016-Apr-22 07:12N 42°51' E 010°23'9 0.6
2016-Apr-21 17:31N 42°56' E 010°33'0 0.0
2016-Apr-21 16:09N 42°56' E 010°33'5 2.1
2016-Apr-21 13:33N 42°53' E 010°26'7 6.6
2016-Apr-21 12:32N 42°49' E 010°19'11 5.2
2016-Apr-21 10:22N 42°54' E 010°33'5 2.8
2016-Apr-21 08:33N 42°53' E 010°26'0 0.1
2016-Apr-21 06:33N 42°53' E 010°26'6 6.0
2016-Apr-21 05:29N 42°48' E 010°20'6 2.9
2016-Apr-21 03:31N 42°53' E 010°25'6 1.9
2016-Apr-21 00:25N 42°49' E 010°19'0 0.0
2016-Apr-20 23:33N 42°49' E 010°19'0 0.0
2016-Apr-20 20:32N 42°49' E 010°19'0 0.0
2016-Apr-20 19:33N 42°49' E 010°19'0 0.0
2016-Apr-20 18:32N 42°49' E 010°19'0 0.0
2016-Apr-20 17:18N 42°49' E 010°19'0 0.0
2016-Apr-20 16:31N 42°49' E 010°19'1 1.0
2016-Apr-20 15:33N 42°49' E 010°21'11 7.7
2016-Apr-20 14:05N 42°56' E 010°33'612.2
2016-Apr-20 13:34N 42°53' E 010°25'6 5.4
2016-Apr-20 12:29N 42°49' E 010°20'  

Dump ship's entire track history